Time;durP1;ratioP1;P1;durP2;ratioP2;P2;SDS_P1;SDS_P2;PMS_P1;PMS_P2;Temp;Humidity;BMP_temperature;BMP_pressure;BME280_temperature;BME280_humidity;BME280_pressure;Samples;Min_cycle;Max_cycle;Signal;HPM_P1;HPM_P2
2022/01/15 00:01:29;;;;;;;26.23;8.50;;;6.00;99.90;;;;;;4900282;29;20059;-88
2022/01/15 00:03:55;;;;;;;271.30;14.73;;;5.90;99.90;;;;;;4899252;29;20063;-88
2022/01/15 00:06:21;;;;;;;20.17;8.20;;;6.50;99.90;;;;;;4903224;29;20044;-88
2022/01/15 00:08:46;;;;;;;17.10;7.85;;;6.00;99.90;;;;;;4896759;29;20107;-88
2022/01/15 00:11:12;;;;;;;18.23;7.03;;;6.80;99.90;;;;;;4897753;29;20051;-87
2022/01/15 00:13:40;;;;;;;16.63;6.97;;;6.00;99.90;;;;;;4897682;29;20055;-87
2022/01/15 00:16:11;;;;;;;16.45;6.35;;;7.10;99.90;;;;;;4896173;29;20058;-88
2022/01/15 00:18:47;;;;;;;15.93;6.35;;;5.90;99.90;;;;;;4897480;29;20052;-87
2022/01/15 00:21:14;;;;;;;17.35;5.28;;;6.90;99.90;;;;;;4897903;29;20728;-88
2022/01/15 00:23:41;;;;;;;11.02;4.82;;;6.80;99.90;;;;;;4880816;29;20485;-87
2022/01/15 00:26:06;;;;;;;11.48;4.45;;;6.00;99.90;;;;;;4881972;29;20135;-87
2022/01/15 00:28:32;;;;;;;19.55;5.05;;;5.90;99.90;;;;;;4897425;29;20127;-88
2022/01/15 00:30:58;;;;;;;33.92;6.75;;;6.80;99.90;;;;;;4895769;29;20388;-87
2022/01/15 00:33:25;;;;;;;16.25;6.13;;;6.00;99.90;;;;;;4897193;29;20044;-87
2022/01/15 00:35:52;;;;;;;16.08;5.18;;;6.30;99.90;;;;;;4896316;29;20472;-87
2022/01/15 00:38:18;;;;;;;16.45;5.50;;;5.40;99.90;;;;;;4895484;29;20076;-88
2022/01/15 00:40:44;;;;;;;14.52;5.05;;;6.70;99.90;;;;;;4897098;29;20066;-87
2022/01/15 00:43:09;;;;;;;15.70;4.60;;;6.60;99.90;;;;;;4897011;29;20048;-87
2022/01/15 00:45:35;;;;;;;46.72;5.65;;;6.90;99.90;;;;;;4895653;29;20047;-87
2022/01/15 00:48:02;;;;;;;45.65;5.40;;;6.90;99.90;;;;;;4896309;29;20139;-88
2022/01/15 00:50:28;;;;;;;22.00;5.40;;;6.80;99.90;;;;;;4896213;29;20099;-87
2022/01/15 00:52:54;;;;;;;17.73;4.40;;;6.60;99.90;;;;;;4896059;29;20044;-87
2022/01/15 00:55:19;;;;;;;24.50;6.38;;;5.60;99.90;;;;;;4896383;29;20056;-87
2022/01/15 00:57:45;;;;;;;42.15;5.50;;;5.70;99.90;;;;;;4896973;29;20067;-89
2022/01/15 01:00:17;;;;;;;18.40;5.68;;;5.80;99.90;;;;;;4896521;29;20139;-88
2022/01/15 01:02:43;;;;;;;19.08;4.85;;;5.70;99.90;;;;;;4896307;29;20043;-88
2022/01/15 01:05:10;;;;;;;22.77;6.00;;;4.80;99.90;;;;;;4895175;29;20044;-87
2022/01/15 01:07:35;;;;;;;124.80;8.60;;;5.80;99.90;;;;;;4896628;29;20048;-88
2022/01/15 01:12:55;;;;;;;90.07;8.00;;;5.70;99.90;;;;;;4895718;29;20130;-88
2022/01/15 01:21:09;;;;;;;129.93;8.15;;;6.80;99.90;;;;;;4895504;29;20514;-89
2022/01/15 01:23:35;;;;;;;43.53;5.47;;;5.70;99.90;;;;;;4896070;29;20480;-88
2022/01/15 01:26:10;;;;;;;50.88;5.40;;;5.80;99.90;;;;;;4896396;29;20048;-87
2022/01/15 01:28:41;;;;;;;52.85;5.88;;;5.70;99.90;;;;;;4895932;29;20130;-88
2022/01/15 01:31:18;;;;;;;159.27;7.63;;;5.70;99.90;;;;;;4896597;29;20044;-88
2022/01/15 01:33:49;;;;;;;111.50;8.15;;;6.50;99.90;;;;;;4895004;29;20507;-87
2022/01/15 01:41:07;;;;;;;74.68;6.55;;;5.70;99.90;;;;;;4895830;29;20444;-89
2022/01/15 01:43:46;;;;;;;93.38;6.70;;;6.30;99.90;;;;;;4896569;29;20048;-89
2022/01/15 01:46:35;;;;;;;72.97;6.35;;;5.70;99.90;;;;;;4896262;29;20036;-87
2022/01/15 01:49:02;;;;;;;8.27;3.25;;;5.70;99.90;;;;;;4893776;29;20063;-87
2022/01/15 01:51:34;;;;;;;11.80;2.92;;;5.70;99.90;;;;;;4895506;29;20460;-87
2022/01/15 01:54:06;;;;;;;7.45;2.60;;;6.20;99.90;;;;;;4895492;29;20523;-88
2022/01/15 01:56:32;;;;;;;16.60;2.53;;;5.70;99.90;;;;;;4895041;29;20044;-88
2022/01/15 01:58:58;;;;;;;8.85;2.55;;;6.60;99.90;;;;;;4896205;29;20551;-88
2022/01/15 02:01:25;;;;;;;9.43;2.33;;;5.60;99.90;;;;;;4894051;29;20524;-87
2022/01/15 02:03:51;;;;;;;7.43;2.60;;;5.70;99.90;;;;;;4880010;29;20091;-87
2022/01/15 02:06:18;;;;;;;5.25;2.03;;;6.50;99.90;;;;;;4895786;29;20053;-87
2022/01/15 02:08:44;;;;;;;42.60;4.88;;;5.60;99.90;;;;;;4894996;29;20052;-88
2022/01/15 02:11:11;;;;;;;32.95;2.72;;;6.50;99.90;;;;;;4896332;29;20127;-87
2022/01/15 02:13:40;;;;;;;14.35;2.40;;;5.60;99.90;;;;;;4895277;29;20408;-88
2022/01/15 02:16:05;;;;;;;22.75;3.05;;;5.60;99.90;;;;;;4894881;29;20048;-88
2022/01/15 02:18:31;;;;;;;17.85;2.58;;;5.60;99.90;;;;;;4895043;29;20051;-88
2022/01/15 02:23:41;;;;;;;24.48;2.60;;;5.60;99.90;;;;;;4894923;29;20044;-88
2022/01/15 02:26:09;;;;;;;24.03;2.50;;;5.60;99.90;;;;;;4895749;29;20048;-88
2022/01/15 02:28:38;;;;;;;34.53;2.40;;;5.60;99.90;;;;;;4895435;29;20292;-88
2022/01/15 02:31:08;;;;;;;33.95;2.10;;;5.50;99.90;;;;;;4894320;29;20507;-87
2022/01/15 02:33:34;;;;;;;25.17;2.40;;;5.50;99.90;;;;;;4894981;29;20048;-88
2022/01/15 02:36:03;;;;;;;18.40;2.53;;;5.60;99.90;;;;;;4894664;29;20182;-88
2022/01/15 02:38:29;;;;;;;32.03;2.83;;;5.60;99.90;;;;;;4911070;29;20040;-88
2022/01/15 02:40:55;;;;;;;39.05;2.60;;;6.50;99.90;;;;;;4913942;29;20499;-88
2022/01/15 02:43:28;;;;;;;33.72;2.53;;;5.60;99.90;;;;;;4913240;29;20452;-88
2022/01/15 02:45:56;;;;;;;83.28;3.60;;;5.60;99.90;;;;;;4897587;29;20121;-88
2022/01/15 02:48:24;;;;;;;61.95;2.90;;;6.30;99.90;;;;;;4913787;29;20055;-88
2022/01/15 02:50:50;;;;;;;68.00;2.90;;;5.90;99.90;;;;;;4896874;29;20654;-88
2022/01/15 02:53:17;;;;;;;51.83;2.78;;;5.50;99.90;;;;;;4913024;29;20047;-87
2022/01/15 02:55:44;;;;;;;57.25;2.78;;;6.50;99.90;;;;;;4913458;29;20079;-87
2022/01/15 02:58:10;;;;;;;66.22;2.90;;;6.00;99.90;;;;;;4913030;29;20036;-87
2022/01/15 03:00:36;;;;;;;31.73;2.05;;;6.00;99.90;;;;;;4897066;29;20183;-87
2022/01/15 03:03:03;;;;;;;70.90;3.25;;;5.40;99.90;;;;;;4897682;29;20055;-88
2022/01/15 03:05:29;;;;;;;83.20;3.60;;;6.10;99.90;;;;;;4896636;29;20044;-88
2022/01/15 03:07:54;;;;;;;69.40;3.40;;;5.50;99.90;;;;;;4913465;29;20411;-88
2022/01/15 03:10:20;;;;;;;111.38;3.90;;;5.50;99.90;;;;;;4913032;29;20039;-88
2022/01/15 03:12:46;;;;;;;82.13;3.75;;;6.30;99.90;;;;;;4912906;29;20067;-87
2022/01/15 03:15:18;;;;;;;112.25;4.15;;;5.70;99.90;;;;;;4897276;29;20406;-87
2022/01/15 03:17:44;;;;;;;175.57;5.33;;;5.40;99.90;;;;;;4913014;29;20047;-87
2022/01/15 03:20:12;;;;;;;171.52;5.15;;;5.40;99.90;;;;;;4896701;29;20396;-87
2022/01/15 03:22:37;;;;;;;122.00;4.72;;;5.40;99.90;;;;;;4897757;29;20043;-87
2022/01/15 03:25:04;;;;;;;78.10;3.20;;;5.40;99.90;;;;;;4897988;29;20046;-87
2022/01/15 03:27:34;;;;;;;131.85;4.53;;;5.40;99.90;;;;;;4899057;29;20087;-88
2022/01/15 03:30:00;;;;;;;171.75;5.63;;;6.40;99.90;;;;;;4910485;29;20055;-87
2022/01/15 03:32:26;;;;;;;106.05;4.55;;;5.00;99.90;;;;;;4893578;29;20040;-87
2022/01/15 03:34:52;;;;;;;62.60;3.65;;;5.90;99.90;;;;;;4893290;29;20525;-87
2022/01/15 03:37:18;;;;;;;88.45;3.90;;;5.30;99.90;;;;;;4894122;29;20409;-87
2022/01/15 03:39:45;;;;;;;96.03;4.35;;;5.90;99.90;;;;;;4893697;29;20476;-87
2022/01/15 03:42:12;;;;;;;57.25;3.78;;;4.80;99.90;;;;;;4894592;29;20044;-87
2022/01/15 03:44:44;;;;;;;45.08;3.35;;;5.40;99.90;;;;;;4893970;29;20094;-87
2022/01/15 03:47:11;;;;;;;30.17;3.45;;;5.90;99.90;;;;;;4877719;29;20138;-87
2022/01/15 03:49:37;;;;;;;34.47;2.95;;;5.40;99.90;;;;;;4894160;29;20127;-88
2022/01/15 03:52:04;;;;;;;22.20;3.00;;;5.30;99.90;;;;;;4894238;29;20079;-87
2022/01/15 03:54:30;;;;;;;21.10;2.67;;;5.40;99.90;;;;;;4893097;29;20052;-88
2022/01/15 03:56:56;;;;;;;21.10;3.13;;;5.40;99.90;;;;;;4893949;29;20399;-88
2022/01/15 03:59:21;;;;;;;30.00;4.28;;;5.40;99.90;;;;;;4894133;29;20083;-88
2022/01/15 04:01:47;;;;;;;43.53;4.13;;;6.30;99.90;;;;;;4892851;29;20461;-88
2022/01/15 04:04:17;;;;;;;42.25;3.90;;;6.00;99.90;;;;;;4879119;29;20087;-88
2022/01/15 04:06:43;;;;;;;28.58;4.60;;;6.20;99.90;;;;;;4893901;29;20052;-88
2022/01/15 04:09:11;;;;;;;12.95;3.72;;;5.00;99.90;;;;;;4893618;29;20050;-88
2022/01/15 04:11:37;;;;;;;9.27;2.92;;;5.60;99.90;;;;;;4893749;29;20465;-88
2022/01/15 04:14:04;;;;;;;32.63;4.25;;;5.80;99.90;;;;;;4896897;29;20574;-88
2022/01/15 04:16:29;;;;;;;10.48;3.75;;;5.30;99.90;;;;;;4896167;29;20155;-87
2022/01/15 04:18:57;;;;;;;11.23;3.97;;;5.40;99.90;;;;;;4896999;29;20100;-88
2022/01/15 04:21:23;;;;;;;9.60;3.30;;;6.10;99.90;;;;;;4897850;29;20145;-88
2022/01/15 04:23:49;;;;;;;13.95;4.05;;;6.00;99.90;;;;;;4896624;29;20090;-88
2022/01/15 04:26:15;;;;;;;25.27;4.78;;;4.90;99.90;;;;;;4897433;29;20079;-88
2022/01/15 04:28:41;;;;;;;18.33;4.22;;;5.40;99.90;;;;;;4896642;29;20431;-88
2022/01/15 04:31:08;;;;;;;15.00;4.25;;;5.50;99.90;;;;;;4896826;29;20131;-88
2022/01/15 04:33:36;;;;;;;11.13;3.67;;;5.40;99.90;;;;;;4896923;29;20043;-87
2022/01/15 04:36:03;;;;;;;15.65;4.05;;;6.10;99.90;;;;;;4896017;29;20075;-87
2022/01/15 04:38:32;;;;;;;15.07;3.95;;;5.40;99.90;;;;;;4896773;29;20107;-87
2022/01/15 04:40:57;;;;;;;9.60;3.72;;;6.60;99.90;;;;;;4896925;29;20044;-87
2022/01/15 04:43:23;;;;;;;37.80;4.50;;;6.40;99.90;;;;;;4896644;29;20063;-87
2022/01/15 04:45:49;;;;;;;13.02;3.67;;;5.80;99.90;;;;;;4895981;29;20052;-87
2022/01/15 04:48:15;;;;;;;14.48;3.95;;;6.00;99.90;;;;;;4896813;29;20573;-87
2022/01/15 04:50:41;;;;;;;12.38;4.15;;;6.60;99.90;;;;;;4895153;29;20052;-88
2022/01/15 04:53:08;;;;;;;18.13;4.03;;;6.70;99.90;;;;;;4897431;29;20040;-88
2022/01/15 04:55:35;;;;;;;33.75;4.68;;;6.20;99.90;;;;;;4896771;29;20056;-88
2022/01/15 04:58:01;;;;;;;15.52;4.07;;;5.40;99.90;;;;;;4896602;29;20408;-88
2022/01/15 05:00:27;;;;;;;10.00;3.33;;;5.40;99.90;;;;;;4896732;29;20052;-88
2022/01/15 05:02:52;;;;;;;15.23;3.83;;;5.40;99.90;;;;;;4896239;29;20048;-88
2022/01/15 05:05:18;;;;;;;16.17;4.15;;;5.50;99.90;;;;;;4896137;29;20228;-88
2022/01/15 05:07:44;;;;;;;18.88;4.50;;;4.70;99.90;;;;;;4896919;29;20051;-87
2022/01/15 05:10:16;;;;;;;17.55;4.75;;;5.40;99.90;;;;;;4896798;29;20496;-88
2022/01/15 05:12:44;;;;;;;12.43;4.45;;;5.30;99.90;;;;;;4895764;29;20051;-88
2022/01/15 05:15:12;;;;;;;16.38;4.70;;;5.10;99.90;;;;;;4896843;29;20044;-88
2022/01/15 05:17:38;;;;;;;14.45;4.20;;;5.30;99.90;;;;;;4895994;29;20489;-87
2022/01/15 05:20:05;;;;;;;14.55;4.13;;;5.50;99.90;;;;;;4895481;29;20120;-88
2022/01/15 05:22:32;;;;;;;10.60;3.97;;;5.40;99.90;;;;;;4896352;29;20063;-87
2022/01/15 05:25:03;;;;;;;10.55;3.83;;;6.40;99.90;;;;;;4896952;29;20134;-88
2022/01/15 05:27:29;;;;;;;9.13;3.42;;;5.40;99.90;;;;;;4880079;29;20052;-88
2022/01/15 05:29:55;;;;;;;10.32;4.00;;;6.20;99.90;;;;;;4895691;29;20052;-88
2022/01/15 05:32:23;;;;;;;22.77;5.32;;;6.10;99.90;;;;;;4894756;29;20044;-88
2022/01/15 05:34:49;;;;;;;9.95;3.85;;;4.90;99.90;;;;;;4895201;29;20055;-88
2022/01/15 05:37:15;;;;;;;13.63;4.53;;;5.90;99.90;;;;;;4895947;29;20052;-87
2022/01/15 05:39:41;;;;;;;9.98;3.97;;;6.00;99.90;;;;;;4895406;29;20071;-87
2022/01/15 05:42:08;;;;;;;11.35;3.80;;;4.60;99.90;;;;;;4896028;29;20134;-88
2022/01/15 05:44:34;;;;;;;16.35;4.43;;;5.40;99.90;;;;;;4880628;29;20048;-88
2022/01/15 05:47:00;;;;;;;15.95;5.10;;;5.40;99.90;;;;;;4894500;29;20044;-88
2022/01/15 05:49:26;;;;;;;11.00;4.55;;;5.40;99.90;;;;;;4895783;29;20047;-88
2022/01/15 05:51:52;;;;;;;13.60;4.78;;;5.90;99.90;;;;;;4895697;29;20130;-88
2022/01/15 05:54:18;;;;;;;14.00;4.95;;;5.40;99.90;;;;;;4894699;29;20052;-88
2022/01/15 05:56:43;;;;;;;15.07;4.97;;;5.40;99.90;;;;;;4895975;29;20044;-87
2022/01/15 05:59:09;;;;;;;15.52;5.18;;;5.40;99.90;;;;;;4895986;29;20044;-88
2022/01/15 06:01:36;;;;;;;12.48;4.93;;;5.40;99.90;;;;;;4894461;29;20441;-87
2022/01/15 06:04:03;;;;;;;12.30;3.83;;;5.60;99.90;;;;;;4894774;29;20058;-87
2022/01/15 06:06:28;;;;;;;11.32;4.20;;;5.40;99.90;;;;;;4895457;29;20067;-87
2022/01/15 06:08:54;;;;;;;13.50;4.30;;;5.40;99.90;;;;;;4894754;29;20122;-88
2022/01/15 06:11:21;;;;;;;16.25;4.43;;;6.00;99.90;;;;;;4895554;29;20082;-88
2022/01/15 06:13:48;;;;;;;12.88;4.60;;;6.00;99.90;;;;;;4894181;29;20048;-88
2022/01/15 06:16:14;;;;;;;13.07;4.00;;;5.60;99.90;;;;;;4887249;29;20046;-88
2022/01/15 06:18:40;;;;;;;21.75;4.53;;;5.40;99.90;;;;;;4905931;29;20043;-88
2022/01/15 06:21:06;;;;;;;16.10;4.60;;;5.40;99.90;;;;;;4888581;29;20178;-88
2022/01/15 06:23:32;;;;;;;19.85;4.47;;;5.30;99.90;;;;;;4889099;29;20039;-89
2022/01/15 06:25:58;;;;;;;19.58;4.93;;;5.30;99.90;;;;;;4888382;29;20048;-88
2022/01/15 06:28:23;;;;;;;15.88;4.78;;;5.50;99.90;;;;;;4886555;29;20040;-88
2022/01/15 06:30:49;;;;;;;11.20;4.05;;;6.30;99.90;;;;;;4887754;29;20126;-87
2022/01/15 06:33:15;;;;;;;12.18;4.10;;;6.30;99.90;;;;;;4887987;29;20484;-88
2022/01/15 06:35:41;;;;;;;11.35;3.88;;;6.40;99.90;;;;;;4900542;29;20051;-88
2022/01/15 06:38:07;;;;;;;11.60;3.15;;;6.10;99.90;;;;;;4888953;29;20356;-88
2022/01/15 06:40:33;;;;;;;8.35;2.78;;;6.30;99.90;;;;;;4887158;29;20131;-88
2022/01/15 06:43:00;;;;;;;7.70;3.17;;;5.00;99.90;;;;;;4902886;29;20407;-88
2022/01/15 06:45:27;;;;;;;13.02;3.00;;;4.90;99.90;;;;;;4904609;29;20196;-88
2022/01/15 06:47:53;;;;;;;10.27;3.17;;;5.30;99.90;;;;;;4887884;29;20043;-88
2022/01/15 06:50:19;;;;;;;10.45;2.90;;;5.30;99.90;;;;;;4886447;29;20046;-88
2022/01/15 06:52:45;;;;;;;8.60;2.80;;;5.70;99.90;;;;;;4888465;29;20075;-88
2022/01/15 06:55:11;;;;;;;10.98;3.33;;;4.90;99.90;;;;;;4887195;29;20094;-88
2022/01/15 06:57:37;;;;;;;8.82;2.78;;;5.40;99.90;;;;;;4894610;29;20044;-87
2022/01/15 07:00:06;;;;;;;13.50;3.13;;;5.30;99.90;;;;;;4896133;29;20114;-87
2022/01/15 07:02:32;;;;;;;13.05;3.58;;;5.30;99.90;;;;;;4895097;29;20136;-87
2022/01/15 07:04:58;;;;;;;10.90;2.95;;;5.30;99.90;;;;;;4892296;29;20135;-87
2022/01/15 07:07:23;;;;;;;9.25;3.63;;;6.20;99.90;;;;;;4904588;29;20054;-89
2022/01/15 07:09:49;;;;;;;10.25;3.38;;;6.00;99.90;;;;;;4883374;29;20083;-87
2022/01/15 07:12:15;;;;;;;13.73;4.03;;;4.60;99.90;;;;;;4902327;29;20043;-87
2022/01/15 07:14:41;;;;;;;15.02;3.65;;;4.80;99.90;;;;;;4914051;29;20415;-87
2022/01/15 07:17:06;;;;;;;12.77;4.20;;;5.20;99.90;;;;;;4897567;29;20036;-89
2022/01/15 07:19:34;;;;;;;16.77;4.13;;;6.40;99.90;;;;;;4897952;29;20107;-90
2022/01/15 07:22:00;;;;;;;14.80;3.65;;;5.60;99.90;;;;;;4897766;29;20048;-89
2022/01/15 07:24:26;;;;;;;14.18;3.63;;;5.90;99.90;;;;;;4898558;29;20043;-90
2022/01/15 07:26:51;;;;;;;11.90;4.30;;;5.30;99.90;;;;;;4889581;29;20047;-89
2022/01/15 07:30:09;;;;;;;17.85;5.13;;;5.30;99.90;;;;;;4895984;29;20040;-91
2022/01/15 07:32:55;;;;;;;16.52;4.65;;;5.40;99.90;;;;;;4829136;29;20083;-85
2022/01/15 07:35:21;;;;;;;19.00;5.15;;;5.10;99.90;;;;;;4909112;29;20064;-87
2022/01/15 07:37:51;;;;;;;14.02;4.97;;;5.30;99.90;;;;;;4878844;29;20058;-88
2022/01/15 07:40:59;;;;;;;13.10;4.65;;;5.30;99.90;;;;;;4893647;29;20096;-87
2022/01/15 07:43:06;;;;;;;9.18;3.85;;;4.90;99.90;;;;;;4904804;29;20381;-84
2022/01/15 07:45:32;;;;;;;10.75;4.18;;;6.40;99.90;;;;;;4878692;29;20466;-86
2022/01/15 07:48:24;;;;;;;10.02;3.88;;;5.30;99.90;;;;;;4900544;29;20067;-86
2022/01/15 07:50:49;;;;;;;9.02;4.20;;;5.30;99.90;;;;;;4894812;29;20136;-90
2022/01/15 07:53:17;;;;;;;7.93;4.07;;;5.80;99.90;;;;;;4887087;29;20599;-85
2022/01/15 07:55:43;;;;;;;7.97;3.95;;;6.20;99.90;;;;;;4881942;29;20093;-87
2022/01/15 07:58:10;;;;;;;7.43;3.58;;;6.10;99.90;;;;;;4898537;29;20143;-93
2022/01/15 08:00:36;;;;;;;8.93;3.78;;;6.10;99.90;;;;;;4882129;29;20076;-89
2022/01/15 08:03:04;;;;;;;9.18;3.53;;;5.10;99.90;;;;;;4882480;29;20143;-89
2022/01/15 08:05:30;;;;;;;7.50;3.22;;;5.20;99.90;;;;;;4897164;29;20111;-86
2022/01/15 08:07:59;;;;;;;10.60;3.20;;;5.30;99.90;;;;;;4897107;29;20390;-85
2022/01/15 08:10:24;;;;;;;7.43;3.15;;;5.90;99.90;;;;;;4881921;29;20052;-89
2022/01/15 08:12:51;;;;;;;8.63;3.45;;;5.30;99.90;;;;;;4884243;29;20049;-92
2022/01/15 08:15:19;;;;;;;6.45;3.30;;;6.20;99.90;;;;;;4892654;29;20130;-91
2022/01/15 08:17:45;;;;;;;6.57;3.22;;;6.20;99.90;;;;;;4883120;29;20048;-93
2022/01/15 08:20:12;;;;;;;6.60;3.05;;;6.40;99.90;;;;;;4883382;29;20062;-92
2022/01/15 08:22:40;;;;;;;7.63;3.72;;;5.30;99.90;;;;;;4882751;29;20077;-90
2022/01/15 08:25:07;;;;;;;8.57;4.03;;;6.30;99.90;;;;;;4888357;29;20095;-90
2022/01/15 08:28:01;;;;;;;11.60;4.40;;;5.30;99.90;;;;;;4885080;29;20044;-90
2022/01/15 08:30:42;;;;;;;14.25;3.97;;;5.40;99.90;;;;;;4877634;29;20092;-90
2022/01/15 08:33:07;;;;;;;10.77;4.65;;;5.80;99.90;;;;;;4882387;29;20549;-90
2022/01/15 08:35:48;;;;;;;13.35;4.78;;;5.30;99.90;;;;;;4881759;29;20044;-91
2022/01/15 08:38:15;;;;;;;9.95;4.70;;;4.90;99.90;;;;;;4882240;29;20040;-90
2022/01/15 08:40:42;;;;;;;7.75;4.05;;;5.40;99.90;;;;;;4883316;29;20158;-92
2022/01/15 08:43:08;;;;;;;8.88;3.92;;;5.80;99.90;;;;;;4883156;29;20044;-91
2022/01/15 08:45:35;;;;;;;8.48;3.47;;;6.10;99.90;;;;;;4883056;29;20052;-91
2022/01/15 08:48:12;;;;;;;9.15;3.50;;;6.50;99.90;;;;;;4884427;29;20052;-92
2022/01/15 08:50:44;;;;;;;7.97;3.63;;;6.10;99.90;;;;;;4883247;29;20048;-92
2022/01/15 08:53:22;;;;;;;7.82;3.33;;;5.40;99.90;;;;;;4883434;29;20044;-91
2022/01/15 08:55:48;;;;;;;5.85;2.47;;;4.80;99.90;;;;;;4895667;29;20527;-90
2022/01/15 08:58:14;;;;;;;5.50;2.80;;;5.60;99.90;;;;;;4913243;29;20036;-90
2022/01/15 09:00:40;;;;;;;5.70;2.80;;;5.40;99.90;;;;;;4913543;29;20523;-91
2022/01/15 09:03:16;;;;;;;6.25;3.17;;;6.00;99.90;;;;;;4898947;29;20056;-91
2022/01/15 09:05:41;;;;;;;7.05;2.60;;;5.50;99.90;;;;;;4914023;29;20118;-91
2022/01/15 09:08:08;;;;;;;6.90;3.03;;;5.90;99.90;;;;;;4914710;29;20081;-90
2022/01/15 09:10:41;;;;;;;8.00;3.30;;;5.50;99.90;;;;;;4912974;29;20581;-89
2022/01/15 09:13:08;;;;;;;6.32;3.40;;;5.50;99.90;;;;;;4898339;29;20055;-89
2022/01/15 09:15:34;;;;;;;8.00;3.78;;;5.90;99.90;;;;;;4912913;29;20048;-90
2022/01/15 09:18:00;;;;;;;9.68;3.33;;;5.50;99.90;;;;;;4897100;29;20134;-89
2022/01/15 09:20:26;;;;;;;8.40;3.80;;;5.40;99.90;;;;;;4897477;29;20054;-91
2022/01/15 09:22:52;;;;;;;7.75;3.38;;;5.50;99.90;;;;;;4914526;29;20054;-90
2022/01/15 09:25:18;;;;;;;9.05;3.47;;;5.90;99.90;;;;;;4920944;29;20507;-91
2022/01/15 09:30:28;;;;;;;6.03;3.20;;;6.00;99.90;;;;;;4896911;29;20059;-90
2022/01/15 09:32:55;;;;;;;6.35;2.97;;;5.50;99.90;;;;;;4881199;29;20368;-89
2022/01/15 09:35:24;;;;;;;6.97;3.15;;;5.50;99.90;;;;;;4881000;29;20052;-90
2022/01/15 09:37:50;;;;;;;5.32;2.67;;;5.50;99.90;;;;;;4883458;29;20122;-90
2022/01/15 09:40:18;;;;;;;5.63;2.90;;;6.30;99.90;;;;;;4880599;29;20135;-89
2022/01/15 09:42:44;;;;;;;6.90;3.28;;;6.10;99.90;;;;;;4881670;29;20051;-90
2022/01/15 09:45:11;;;;;;;7.97;3.60;;;5.80;99.90;;;;;;4882222;29;20068;-91
2022/01/15 09:47:38;;;;;;;8.02;3.90;;;5.40;99.90;;;;;;4882074;29;20452;-90
2022/01/15 09:50:08;;;;;;;10.38;4.20;;;5.10;99.90;;;;;;4881399;29;20056;-90
2022/01/15 09:52:36;;;;;;;11.85;4.57;;;5.50;99.90;;;;;;4881417;29;20075;-91
2022/01/15 09:55:05;;;;;;;10.32;4.93;;;5.50;99.90;;;;;;4887110;29;20059;-91
2022/01/15 09:57:30;;;;;;;10.93;5.15;;;5.50;99.90;;;;;;4882238;29;20177;-91
2022/01/15 09:59:56;;;;;;;12.05;5.38;;;6.40;99.90;;;;;;4897058;29;20119;-92
2022/01/15 10:02:22;;;;;;;11.05;5.38;;;6.20;99.90;;;;;;4896815;29;20085;-90
2022/01/15 10:04:48;;;;;;;11.13;5.63;;;5.60;99.90;;;;;;4897506;29;20052;-93
2022/01/15 10:07:17;;;;;;;12.07;6.10;;;6.20;99.90;;;;;;4897282;29;20052;-93
2022/01/15 10:09:45;;;;;;;12.70;6.30;;;6.00;99.90;;;;;;4899340;29;20484;-94
2022/01/15 10:12:22;;;;;;;12.02;6.30;;;6.10;99.90;;;;;;4881542;29;20101;-91
2022/01/15 10:14:47;;;;;;;12.50;6.65;;;5.70;99.90;;;;;;4896733;29;20186;-90
2022/01/15 10:17:27;;;;;;;13.68;6.47;;;6.40;99.90;;;;;;4897093;29;20130;-90
2022/01/15 10:19:54;;;;;;;13.70;7.47;;;5.70;99.90;;;;;;4881620;29;20059;-90
2022/01/15 10:22:23;;;;;;;15.82;7.82;;;6.60;99.90;;;;;;4896277;29;20063;-91
2022/01/15 10:24:56;;;;;;;15.38;8.75;;;5.70;99.90;;;;;;4896589;29;20052;-92
2022/01/15 10:27:25;;;;;;;16.35;8.88;;;5.70;99.90;;;;;;4893624;29;20130;-91
2022/01/15 10:29:59;;;;;;;17.67;8.50;;;5.70;99.90;;;;;;4899606;29;20059;-92
2022/01/15 10:32:28;;;;;;;16.90;9.50;;;5.70;99.90;;;;;;4899566;29;20079;-91
2022/01/15 10:34:54;;;;;;;18.35;9.85;;;5.70;99.90;;;;;;4898833;29;20043;-92
2022/01/15 10:37:24;;;;;;;20.52;10.25;;;5.10;99.90;;;;;;4899589;29;20430;-92
2022/01/15 10:40:00;;;;;;;17.05;9.88;;;5.70;99.90;;;;;;4899873;29;20040;-91
2022/01/15 10:42:27;;;;;;;21.95;10.82;;;5.70;99.90;;;;;;4899003;29;20142;-91
2022/01/15 10:44:58;;;;;;;21.58;11.15;;;6.70;99.90;;;;;;4899749;29;20043;-91
2022/01/15 10:47:27;;;;;;;22.08;11.80;;;5.70;99.90;;;;;;4899504;29;20048;-91
2022/01/15 10:49:57;;;;;;;20.50;10.27;;;6.60;99.90;;;;;;4898911;29;20043;-91
2022/01/15 10:52:26;;;;;;;22.60;12.05;;;6.00;99.90;;;;;;4899845;29;20039;-91
2022/01/15 10:54:53;;;;;;;22.40;12.55;;;6.70;99.90;;;;;;4899343;29;20091;-90
2022/01/15 10:57:22;;;;;;;22.65;12.02;;;5.10;99.90;;;;;;4898092;29;20083;-89
2022/01/15 11:00:05;;;;;;;17.08;9.80;;;5.80;99.90;;;;;;4914203;29;20098;-89
2022/01/15 11:02:31;;;;;;;16.83;9.02;;;5.80;99.90;;;;;;4897763;29;20082;-90
2022/01/15 11:04:57;;;;;;;16.30;8.65;;;5.80;99.90;;;;;;4914061;29;20503;-89
2022/01/15 11:07:23;;;;;;;15.60;8.75;;;5.70;99.90;;;;;;4898226;29;20048;-90
2022/01/15 11:09:51;;;;;;;13.88;7.97;;;5.80;99.90;;;;;;4913358;29;20083;-90
2022/01/15 11:12:18;;;;;;;15.20;8.45;;;5.70;99.90;;;;;;4898822;29;20048;-90
2022/01/15 11:14:43;;;;;;;15.25;8.10;;;5.70;99.90;;;;;;4898134;29;20052;-89
2022/01/15 11:17:09;;;;;;;17.88;9.02;;;5.50;99.90;;;;;;4897877;29;20393;-89
2022/01/15 11:19:36;;;;;;;18.55;8.82;;;5.80;99.90;;;;;;4897855;29;20474;-90
2022/01/15 11:22:04;;;;;;;14.25;8.45;;;6.10;99.90;;;;;;4898428;29;20134;-89
2022/01/15 11:24:30;;;;;;;15.25;8.43;;;6.80;99.90;;;;;;4897337;29;20062;-89
2022/01/15 11:26:58;;;;;;;18.05;8.85;;;6.50;99.90;;;;;;4897562;29;20054;-88
2022/01/15 11:29:26;;;;;;;17.85;8.93;;;6.50;99.90;;;;;;4897908;29;20154;-88
2022/01/15 11:31:56;;;;;;;17.08;9.07;;;5.60;99.90;;;;;;4896492;29;20440;-89
2022/01/15 11:34:23;;;;;;;17.85;9.10;;;5.80;99.90;;;;;;4913278;29;20868;-89
2022/01/15 11:36:49;;;;;;;15.52;8.13;;;5.60;99.90;;;;;;4897576;29;20075;-91
2022/01/15 11:39:21;;;;;;;15.00;9.13;;;5.50;99.90;;;;;;4897634;29;20551;-89
2022/01/15 11:41:52;;;;;;;17.15;9.10;;;5.50;99.90;;;;;;4897932;29;20043;-89
2022/01/15 11:44:19;;;;;;;19.50;9.55;;;5.50;99.90;;;;;;4898092;29;20051;-89
2022/01/15 11:46:47;;;;;;;16.00;9.38;;;6.40;99.90;;;;;;4896481;29;20083;-88
2022/01/15 11:49:28;;;;;;;17.38;9.80;;;4.60;99.90;;;;;;4899615;29;20043;-90
2022/01/15 11:51:56;;;;;;;18.40;10.68;;;5.50;99.90;;;;;;4900755;29;20062;-92
2022/01/15 11:54:22;;;;;;;20.70;11.20;;;4.90;99.90;;;;;;4895355;29;20058;-92
2022/01/15 11:56:49;;;;;;;18.38;11.20;;;5.50;99.90;;;;;;4880481;29;20059;-92
2022/01/15 11:59:24;;;;;;;21.63;11.77;;;5.50;99.90;;;;;;4881508;29;20040;-92
2022/01/15 12:01:51;;;;;;;21.10;12.00;;;6.00;99.90;;;;;;4879800;29;20100;-92
2022/01/15 12:04:42;;;;;;;20.58;11.25;;;5.40;99.90;;;;;;4879932;29;20139;-91
2022/01/15 12:07:16;;;;;;;21.35;11.27;;;5.40;99.90;;;;;;4879516;29;20052;-91
2022/01/15 12:09:47;;;;;;;21.85;11.57;;;5.40;99.90;;;;;;4879944;29;20059;-91
2022/01/15 12:12:19;;;;;;;21.42;12.02;;;5.40;99.90;;;;;;4895585;29;20055;-90
2022/01/15 12:14:51;;;;;;;20.90;11.02;;;5.80;99.90;;;;;;4880244;29;20053;-90
2022/01/15 12:17:26;;;;;;;20.75;11.90;;;5.40;99.90;;;;;;4879322;29;20100;-90
2022/01/15 12:19:53;;;;;;;19.98;10.85;;;5.40;99.90;;;;;;4879350;29;20044;-91
2022/01/15 12:22:47;;;;;;;22.58;12.23;;;5.40;99.90;;;;;;4878715;29;20052;-91
2022/01/15 12:25:27;;;;;;;19.00;11.30;;;4.60;99.90;;;;;;4879948;29;20052;-91
2022/01/15 12:28:04;;;;;;;19.30;11.35;;;6.40;99.90;;;;;;4879462;29;20040;-91
2022/01/15 12:30:33;;;;;;;17.77;11.18;;;6.10;99.90;;;;;;4894468;29;20695;-90
2022/01/15 12:33:01;;;;;;;19.63;11.68;;;5.40;99.90;;;;;;4895300;29;20048;-88
2022/01/15 12:35:30;;;;;;;18.75;12.50;;;5.40;99.90;;;;;;4880898;29;20577;-89
2022/01/15 12:38:02;;;;;;;20.13;11.98;;;6.30;99.90;;;;;;4882564;29;20544;-90
2022/01/15 12:40:29;;;;;;;20.00;12.77;;;6.30;99.90;;;;;;4882090;29;20527;-89
2022/01/15 12:42:56;;;;;;;21.17;12.45;;;5.80;99.90;;;;;;4897314;29;20051;-89
2022/01/15 12:45:23;;;;;;;20.83;13.20;;;5.30;99.90;;;;;;4881374;29;20563;-89
2022/01/15 12:47:49;;;;;;;22.10;13.43;;;5.30;99.90;;;;;;4897614;29;20051;-88
2022/01/15 12:50:15;;;;;;;22.02;13.27;;;6.10;99.90;;;;;;4880230;29;20063;-89
2022/01/15 12:52:41;;;;;;;25.33;14.82;;;5.20;99.90;;;;;;4897784;29;20059;-89
2022/01/15 12:55:07;;;;;;;25.77;14.88;;;6.30;99.90;;;;;;4881999;29;20040;-89
2022/01/15 12:57:46;;;;;;;28.48;14.27;;;5.20;99.90;;;;;;4882405;29;20131;-89
2022/01/15 13:00:12;;;;;;;24.92;14.88;;;5.20;99.90;;;;;;4881548;29;20052;-88
2022/01/15 13:02:38;;;;;;;26.27;14.45;;;5.30;99.90;;;;;;4895944;29;20060;-89
2022/01/15 13:05:05;;;;;;;25.42;14.68;;;5.30;99.90;;;;;;4880748;29;20056;-89
2022/01/15 13:07:47;;;;;;;28.88;15.98;;;5.30;99.90;;;;;;4881900;29;20040;-90
2022/01/15 13:10:35;;;;;;;26.48;16.08;;;5.80;99.90;;;;;;4900219;29;20048;-91
2022/01/15 13:13:02;;;;;;;27.10;16.15;;;5.30;99.90;;;;;;4882551;29;20155;-91